メインページ
METAR-TAF:

METAR-TAF

空港 :

ヒヒフォ空港

ウォリス, フランス

緯度: 13-14S, 経度: 176-10W, 海抜: 23m

METAR: 見つかりません

時間: 02:16 (14:16 UTC)

予報

当レポートは3時間16分前の11:00(UTC)に作成
予報は25日の 12時(UTC)から 26日の 12時(UTC)まで有効
の風 12kt
視程10km以上
高度2000ftの雲は散在している
25日の 12時(UTC)から 25日の 18時(UTC)まで一時的に
高度2000ftの雲はほとんどない, 塔状積雲.
にわか雨
26日の 08時(UTC)から 26日の 12時(UTC)まで一時的に
視程: 4500m
高度2000ftの雲は散在している, 塔状積雲.
にわか雨

TAF: NLWW 251100Z 2512/2612 08012KT 9999 SCT020 TEMPO 2512/2518 SHRA FEW020TCU TEMPO 2608/2612 4500 SHRA SCT020TCU

4,000以上の空港の気象観測と天気予報(METAR報とTAF報)

利用可能な観測所は地図上に黄色い丸と赤い丸で示す。

丸の上にカーソルを重ねると観測所名を参照できる。

次にクリックすると気象観測と天気予報を参照できる。

マップの切り替え:黒色「×」印の緑ボタンをクリックして拡大、「-」印の緑ボタンをクリックして縮小、緑色の三角印をクリックして隣りの地図に切り替え


METAR-TAF: